createdAt,value
2022-08-24T00:01:54.405Z,15.80
2022-08-24T00:03:57.641Z,17.27
2022-08-24T00:06:01.317Z,19.15
2022-08-24T00:08:03.174Z,16.95
2022-08-24T00:10:06.451Z,25.60
2022-08-24T00:12:08.308Z,20.08
2022-08-24T00:14:13.479Z,15.65
2022-08-24T00:16:15.926Z,14.57
2022-08-24T00:18:17.868Z,23.00
2022-08-24T00:20:19.294Z,22.50
2022-08-24T00:22:21.102Z,14.95
2022-08-24T00:24:22.576Z,17.15
2022-08-24T00:26:28.584Z,20.30
2022-08-24T00:28:30.900Z,13.95
2022-08-24T00:30:33.006Z,20.35
2022-08-24T00:32:34.455Z,17.52
2022-08-24T00:34:36.466Z,17.88
2022-08-24T00:36:37.995Z,17.02
2022-08-24T00:38:39.505Z,16.27
2022-08-24T00:40:42.664Z,18.02
2022-08-24T00:42:44.145Z,14.75
2022-08-24T00:44:46.132Z,15.80
2022-08-24T00:46:59.640Z,19.58
2022-08-24T00:49:12.099Z,16.80
2022-08-24T00:51:18.398Z,15.10
2022-08-24T00:53:29.044Z,19.00
2022-08-24T00:55:32.556Z,15.25
2022-08-24T00:57:36.879Z,18.55
2022-08-24T00:59:42.254Z,21.88
2022-08-24T01:01:44.350Z,18.92
2022-08-24T01:03:46.379Z,16.58
2022-08-24T01:05:48.598Z,18.15
2022-08-24T01:07:50.508Z,21.08
2022-08-24T01:09:53.388Z,19.83
2022-08-24T01:11:55.083Z,22.40
2022-08-24T01:13:56.631Z,17.95
2022-08-24T01:16:01.373Z,18.27
2022-08-24T01:18:22.886Z,19.23
2022-08-24T01:20:26.261Z,19.55
2022-08-24T01:22:31.133Z,17.73
2022-08-24T01:24:35.402Z,19.05
2022-08-24T01:26:47.328Z,18.67
2022-08-24T01:28:50.554Z,16.73
2022-08-24T01:30:53.872Z,17.95
2022-08-24T01:33:00.981Z,18.75
2022-08-24T01:35:02.720Z,15.93
2022-08-24T01:37:04.874Z,16.55
2022-08-24T01:39:15.143Z,19.37
2022-08-24T01:41:16.634Z,19.38
2022-08-24T01:43:18.314Z,24.42
2022-08-24T01:45:20.150Z,18.23
2022-08-24T01:47:21.619Z,17.60
2022-08-24T01:49:24.775Z,17.45
2022-08-24T01:51:29.993Z,15.93
2022-08-24T01:53:31.624Z,17.65
2022-08-24T01:55:33.804Z,19.45
2022-08-24T01:57:35.269Z,23.40
2022-08-24T01:59:37.189Z,20.73
2022-08-24T02:01:40.757Z,21.67
2022-08-24T02:03:42.252Z,16.65
2022-08-24T02:05:44.424Z,16.75
2022-08-24T02:07:46.074Z,18.33
2022-08-24T02:09:47.529Z,18.40
2022-08-24T02:11:49.234Z,20.15
2022-08-24T02:13:50.850Z,21.58
2022-08-24T02:15:54.044Z,16.30
2022-08-24T02:17:55.855Z,18.45
2022-08-24T02:19:57.520Z,20.67
2022-08-24T02:22:00.411Z,21.55
2022-08-24T02:26:04.697Z,16.60
2022-08-24T02:28:06.206Z,21.67
2022-08-24T02:30:08.095Z,20.77
2022-08-24T02:32:10.555Z,17.07
2022-08-24T02:34:12.224Z,20.65
2022-08-24T02:36:25.707Z,17.63
2022-08-24T02:38:28.091Z,19.42
2022-08-24T02:40:29.706Z,15.35
2022-08-24T02:42:31.422Z,18.42
2022-08-24T02:44:33.147Z,18.35
2022-08-24T02:46:34.749Z,18.98
2022-08-24T02:48:36.326Z,23.00
2022-08-24T02:50:39.508Z,18.70
2022-08-24T02:52:41.664Z,18.02
2022-08-24T02:54:43.315Z,21.13
2022-08-24T02:56:45.858Z,18.52
2022-08-24T02:58:47.908Z,18.40
2022-08-24T03:00:54.782Z,24.92
2022-08-24T03:02:56.665Z,20.92
2022-08-24T03:04:58.144Z,22.15
2022-08-24T03:06:59.584Z,17.10
2022-08-24T03:09:01.203Z,21.08
2022-08-24T03:11:03.328Z,16.83
2022-08-24T03:13:05.089Z,19.27
2022-08-24T03:15:08.293Z,18.90
2022-08-24T03:17:10.482Z,23.33
2022-08-24T03:19:12.466Z,21.13
2022-08-24T03:21:14.154Z,20.10
2022-08-24T03:23:15.977Z,22.42
2022-08-24T03:25:17.784Z,17.70
2022-08-24T03:27:19.428Z,17.93
2022-08-24T03:29:21.266Z,18.52
2022-08-24T03:31:25.444Z,19.02
2022-08-24T03:33:27.109Z,17.00
2022-08-24T03:35:28.879Z,21.00
2022-08-24T03:37:32.737Z,21.75
2022-08-24T03:39:34.831Z,26.23
2022-08-24T03:41:36.742Z,24.75
2022-08-24T03:43:48.789Z,18.73
2022-08-24T03:45:50.529Z,19.10
2022-08-24T03:47:52.166Z,26.05
2022-08-24T03:49:53.644Z,18.77
2022-08-24T03:51:55.356Z,23.55
2022-08-24T03:53:57.907Z,22.13
2022-08-24T03:55:59.604Z,20.00
2022-08-24T03:58:08.058Z,17.52
2022-08-24T04:00:11.022Z,19.38
2022-08-24T04:02:13.018Z,15.40
2022-08-24T04:04:15.839Z,17.20
2022-08-24T04:06:22.043Z,18.10
2022-08-24T04:08:24.013Z,24.83
2022-08-24T04:10:25.686Z,19.33
2022-08-24T04:12:27.556Z,20.05
2022-08-24T04:14:29.056Z,21.38
2022-08-24T04:16:30.922Z,23.17
2022-08-24T04:18:32.575Z,20.25
2022-08-24T04:20:38.173Z,23.25
2022-08-24T04:22:41.555Z,23.48
2022-08-24T04:24:43.474Z,22.40
2022-08-24T04:26:46.184Z,18.10
2022-08-24T04:28:47.932Z,21.88
2022-08-24T04:30:50.700Z,25.17
2022-08-24T04:32:52.158Z,26.17
2022-08-24T04:34:53.872Z,23.42
2022-08-24T04:36:55.326Z,17.98
2022-08-24T04:38:56.810Z,23.85
2022-08-24T04:41:00.150Z,19.52
2022-08-24T04:43:02.067Z,19.70
2022-08-24T04:45:03.830Z,23.80
2022-08-24T04:47:05.842Z,20.90
2022-08-24T04:49:08.385Z,24.10
2022-08-24T04:51:14.061Z,18.45
2022-08-24T04:53:16.087Z,20.48
2022-08-24T04:55:17.705Z,23.63
2022-08-24T04:57:19.133Z,19.13
2022-08-24T04:59:20.939Z,23.45
2022-08-24T05:01:23.810Z,25.00
2022-08-24T05:05:26.852Z,23.13
2022-08-24T05:07:29.875Z,22.13
2022-08-24T05:09:31.851Z,20.92
2022-08-24T05:11:35.163Z,18.90
2022-08-24T05:13:37.584Z,20.88
2022-08-24T05:15:46.286Z,22.67
2022-08-24T05:17:51.201Z,26.00
2022-08-24T05:19:53.181Z,18.55
2022-08-24T05:21:54.771Z,23.48
2022-08-24T05:23:56.418Z,21.77
2022-08-24T05:26:06.001Z,18.45
2022-08-24T05:28:07.728Z,21.70
2022-08-24T05:30:10.974Z,25.60
2022-08-24T05:32:12.532Z,24.20
2022-08-24T05:34:14.597Z,18.88
2022-08-24T05:36:19.818Z,20.15
2022-08-24T05:38:21.304Z,22.70
2022-08-24T05:40:23.739Z,16.95
2022-08-24T05:42:26.251Z,21.45
2022-08-24T05:44:31.063Z,24.58
2022-08-24T05:46:32.913Z,20.17
2022-08-24T05:48:38.164Z,26.20
2022-08-24T05:50:39.949Z,21.58
2022-08-24T05:52:41.882Z,26.65
2022-08-24T05:54:44.443Z,24.90
2022-08-24T05:56:46.574Z,19.48
2022-08-24T05:58:48.285Z,28.15
2022-08-24T06:00:50.292Z,25.43
2022-08-24T06:02:52.994Z,21.15
2022-08-24T06:06:56.594Z,22.98
2022-08-24T06:08:59.039Z,27.35
2022-08-24T06:11:02.598Z,25.77
2022-08-24T06:13:05.448Z,24.15
2022-08-24T06:15:07.618Z,23.50
2022-08-24T06:17:09.265Z,21.57
2022-08-24T06:19:13.127Z,23.70
2022-08-24T06:21:17.406Z,20.45
2022-08-24T06:23:19.927Z,18.98
2022-08-24T06:25:40.334Z,20.80
2022-08-24T06:27:41.859Z,21.98
2022-08-24T06:29:43.349Z,25.55
2022-08-24T06:31:45.872Z,24.92
2022-08-24T06:33:48.456Z,33.47
2022-08-24T06:35:50.052Z,30.65
2022-08-24T06:37:51.693Z,33.43
2022-08-24T06:39:55.039Z,28.15
2022-08-24T06:41:58.729Z,21.52
2022-08-24T06:44:00.393Z,22.40
2022-08-24T06:46:02.035Z,24.02
2022-08-24T06:48:03.588Z,23.02
2022-08-24T06:50:06.666Z,22.92
2022-08-24T06:52:08.505Z,23.55
2022-08-24T06:54:10.092Z,23.35
2022-08-24T06:56:12.380Z,24.80
2022-08-24T06:58:18.128Z,20.85
2022-08-24T07:00:20.523Z,24.08
2022-08-24T07:04:27.570Z,22.00
2022-08-24T07:06:29.726Z,24.58
2022-08-24T07:08:31.423Z,22.93
2022-08-24T07:10:33.333Z,23.15
2022-08-24T07:12:36.362Z,33.38
2022-08-24T07:14:38.025Z,24.33
2022-08-24T07:16:39.555Z,30.60
2022-08-24T07:18:43.236Z,23.48
2022-08-24T07:20:50.269Z,21.20
2022-08-24T07:24:53.719Z,20.92
2022-08-24T07:26:55.591Z,27.03
2022-08-24T07:29:01.289Z,32.43
2022-08-24T07:31:03.728Z,23.40
2022-08-24T07:33:05.517Z,34.67
2022-08-24T07:35:08.852Z,24.38
2022-08-24T07:37:10.363Z,27.00
2022-08-24T07:39:12.002Z,25.33
2022-08-24T07:41:38.063Z,25.60
2022-08-24T07:43:39.593Z,30.60
2022-08-24T07:45:45.886Z,37.35
2022-08-24T07:49:58.927Z,30.38
2022-08-24T07:52:01.214Z,34.10
2022-08-24T07:54:03.040Z,34.95
2022-08-24T07:56:08.875Z,29.85
2022-08-24T07:58:10.667Z,42.90
2022-08-24T08:00:13.680Z,38.85
2022-08-24T08:02:15.187Z,42.03
2022-08-24T08:04:21.892Z,38.65
2022-08-24T08:06:23.414Z,47.17
2022-08-24T08:08:25.529Z,36.85
2022-08-24T08:10:30.601Z,38.97
2022-08-24T08:12:32.431Z,51.05
2022-08-24T08:14:33.905Z,34.90
2022-08-24T08:16:35.818Z,39.67
2022-08-24T08:18:37.672Z,40.65
2022-08-24T08:20:40.215Z,41.00
2022-08-24T08:23:00.663Z,37.08
2022-08-24T08:25:02.499Z,42.00
2022-08-24T08:27:04.268Z,39.15
2022-08-24T08:29:06.300Z,40.33
2022-08-24T08:31:08.130Z,41.37
2022-08-24T08:33:09.921Z,40.75
2022-08-24T08:35:12.770Z,41.17
2022-08-24T08:37:15.274Z,45.40
2022-08-24T08:39:17.572Z,41.85
2022-08-24T08:41:31.459Z,48.85
2022-08-24T08:43:40.027Z,37.80
2022-08-24T08:45:47.222Z,37.85
2022-08-24T08:48:07.575Z,46.17
2022-08-24T08:50:25.674Z,44.15
2022-08-24T08:52:49.141Z,41.72
2022-08-24T08:55:04.004Z,46.65
2022-08-24T08:57:22.668Z,47.75
2022-08-24T08:59:50.478Z,39.28
2022-08-24T09:02:05.433Z,37.83
2022-08-24T09:04:21.453Z,43.45
2022-08-24T09:06:30.600Z,52.17
2022-08-24T09:08:52.179Z,46.97
2022-08-24T09:10:56.918Z,47.53
2022-08-24T09:13:04.415Z,46.00
2022-08-24T09:15:08.157Z,45.75
2022-08-24T09:17:28.692Z,52.30
2022-08-24T09:19:42.281Z,57.17
2022-08-24T09:22:07.423Z,46.45
2022-08-24T09:24:24.307Z,47.17
2022-08-24T09:26:43.852Z,43.47
2022-08-24T09:29:10.035Z,47.63
2022-08-24T09:34:16.746Z,49.65
2022-08-24T09:36:20.183Z,52.60
2022-08-24T09:38:24.554Z,46.10
2022-08-24T09:40:38.111Z,51.75
2022-08-24T09:42:58.723Z,50.45
2022-08-24T09:45:03.524Z,60.20
2022-08-24T09:47:11.045Z,48.35
2022-08-24T09:49:21.986Z,52.03
2022-08-24T09:51:45.566Z,49.53
2022-08-24T09:53:49.799Z,52.33
2022-08-24T09:56:03.904Z,50.38
2022-08-24T09:58:23.814Z,63.50
2022-08-24T10:00:30.845Z,57.13
2022-08-24T10:02:33.062Z,66.43
2022-08-24T10:04:45.605Z,56.27
2022-08-24T10:06:51.646Z,64.88
2022-08-24T10:08:53.367Z,51.83
2022-08-24T10:11:00.966Z,45.28
2022-08-24T10:13:21.274Z,49.28
2022-08-24T10:15:25.982Z,57.47
2022-08-24T10:17:40.915Z,48.05
2022-08-24T10:19:42.923Z,57.25
2022-08-24T10:21:59.733Z,59.85
2022-08-24T10:24:09.731Z,55.28
2022-08-24T10:26:17.488Z,53.33
2022-08-24T10:28:36.273Z,48.10
2022-08-24T10:30:38.650Z,50.20
2022-08-24T10:32:43.481Z,50.63
2022-08-24T10:34:54.426Z,37.75
2022-08-24T10:37:11.109Z,47.63
2022-08-24T10:39:31.659Z,41.55
2022-08-24T10:41:34.572Z,39.17
2022-08-24T10:43:55.867Z,38.55
2022-08-24T10:46:03.554Z,31.92
2022-08-24T10:48:23.655Z,29.73
2022-08-24T10:50:45.274Z,42.22
2022-08-24T10:53:22.375Z,42.35
2022-08-24T10:55:26.837Z,34.35
2022-08-24T10:57:29.660Z,43.83
2022-08-24T10:59:36.754Z,38.72
2022-08-24T11:01:39.394Z,44.15
2022-08-24T11:03:51.859Z,62.30
2022-08-24T11:05:54.621Z,42.60
2022-08-24T11:08:05.190Z,49.42
2022-08-24T11:10:08.903Z,58.15
2022-08-24T11:12:18.488Z,55.45
2022-08-24T11:14:23.487Z,46.00
2022-08-24T11:16:27.200Z,41.72
2022-08-24T11:18:46.425Z,46.58
2022-08-24T11:20:49.509Z,56.63
2022-08-24T11:23:06.080Z,59.15
2022-08-24T11:25:10.684Z,55.30
2022-08-24T11:27:30.542Z,48.83
2022-08-24T11:29:54.591Z,53.58
2022-08-24T11:31:58.830Z,67.97
2022-08-24T11:34:03.647Z,56.45
2022-08-24T11:36:13.960Z,57.47
2022-08-24T11:38:31.620Z,54.85
2022-08-24T11:40:36.092Z,53.33
2022-08-24T11:42:51.943Z,47.50
2022-08-24T11:44:55.147Z,56.25
2022-08-24T11:47:03.870Z,70.88
2022-08-24T11:49:25.993Z,55.38
2022-08-24T11:51:32.342Z,58.40
2022-08-24T11:56:02.649Z,66.65
2022-08-24T11:58:23.847Z,64.38
2022-08-24T12:00:30.156Z,60.15
2022-08-24T12:02:39.224Z,69.93
2022-08-24T12:05:04.459Z,59.97
2022-08-24T12:07:15.704Z,62.55
2022-08-24T12:09:30.314Z,48.58
2022-08-24T12:11:36.426Z,62.33
2022-08-24T12:13:41.195Z,69.18
2022-08-24T12:15:51.981Z,64.35
2022-08-24T12:18:05.127Z,50.58
2022-08-24T12:20:18.507Z,59.65
2022-08-24T12:22:20.893Z,65.75
2022-08-24T12:24:41.417Z,54.55
2022-08-24T12:26:49.452Z,60.85
2022-08-24T12:28:54.595Z,64.05
2022-08-24T12:30:59.638Z,52.92
2022-08-24T12:33:03.541Z,58.35
2022-08-24T12:35:26.423Z,60.65
2022-08-24T12:37:28.521Z,60.78
2022-08-24T12:39:50.081Z,63.63
2022-08-24T12:42:00.297Z,53.88
2022-08-24T12:44:12.590Z,67.65
2022-08-24T12:46:17.292Z,56.40
2022-08-24T12:48:24.892Z,62.17
2022-08-24T12:50:29.405Z,59.58
2022-08-24T12:52:40.641Z,64.40
2022-08-24T12:55:21.255Z,65.60
2022-08-24T12:57:51.811Z,78.00
2022-08-24T12:59:58.246Z,57.83
2022-08-24T13:02:08.245Z,77.50
2022-08-24T13:04:31.492Z,64.68
2022-08-24T13:06:59.817Z,56.50
2022-08-24T13:09:06.627Z,66.55
2022-08-24T13:11:12.809Z,61.70
2022-08-24T13:13:20.345Z,56.40
2022-08-24T13:15:31.094Z,55.85
2022-08-24T13:17:41.247Z,55.40
2022-08-24T13:19:44.630Z,64.43
2022-08-24T13:21:47.925Z,59.13
2022-08-24T13:24:10.240Z,50.90
2022-08-24T13:26:23.140Z,68.05
2022-08-24T13:28:24.697Z,58.42
2022-08-24T13:30:29.030Z,65.43
2022-08-24T13:32:32.005Z,58.22
2022-08-24T13:34:41.676Z,62.67
2022-08-24T13:36:44.773Z,51.85
2022-08-24T13:38:54.491Z,73.70
2022-08-24T13:41:08.399Z,64.70
2022-08-24T13:43:10.116Z,54.03
2022-08-24T13:45:11.940Z,69.00
2022-08-24T13:47:13.619Z,72.70
2022-08-24T13:49:15.185Z,73.80
2022-08-24T13:51:20.477Z,62.13
2022-08-24T13:53:37.388Z,66.68
2022-08-24T13:55:39.071Z,80.63
2022-08-24T13:57:42.700Z,69.68
2022-08-24T13:59:57.975Z,80.30
2022-08-24T14:02:25.319Z,69.05
2022-08-24T14:04:27.318Z,62.55
2022-08-24T14:06:35.863Z,68.75
2022-08-24T14:08:37.515Z,83.47
2022-08-24T14:10:54.179Z,65.18
2022-08-24T14:13:04.305Z,64.20
2022-08-24T14:15:09.100Z,83.45
2022-08-24T14:17:42.087Z,72.93
2022-08-24T14:19:57.354Z,74.90
2022-08-24T14:22:03.184Z,84.03
2022-08-24T14:24:08.309Z,67.15
2022-08-24T14:26:28.539Z,70.72
2022-08-24T14:28:37.792Z,78.68
2022-08-24T14:30:41.044Z,81.45
2022-08-24T14:32:45.949Z,85.88
2022-08-24T14:34:53.660Z,66.88
2022-08-24T14:37:02.265Z,84.55
2022-08-24T14:39:08.400Z,77.50
2022-08-24T14:41:17.115Z,87.65
2022-08-24T14:43:32.513Z,82.82
2022-08-24T14:45:40.176Z,74.15
2022-08-24T14:47:59.711Z,89.28
2022-08-24T14:50:10.526Z,78.82
2022-08-24T14:52:46.602Z,76.70
2022-08-24T14:55:15.581Z,81.65
2022-08-24T14:57:17.360Z,86.43
2022-08-24T14:59:19.074Z,97.33
2022-08-24T15:01:25.012Z,91.03
2022-08-24T15:03:36.479Z,99.25
2022-08-24T15:05:41.270Z,94.40
2022-08-24T15:07:52.253Z,79.85
2022-08-24T15:09:55.726Z,99.55
2022-08-24T15:12:01.230Z,90.72
2022-08-24T15:14:08.259Z,85.18
2022-08-24T15:16:15.427Z,107.65
2022-08-24T15:18:17.512Z,95.20
2022-08-24T15:20:21.398Z,99.43
2022-08-24T15:22:36.349Z,96.15
2022-08-24T15:24:56.566Z,96.68
2022-08-24T15:27:06.260Z,98.25
2022-08-24T15:29:13.015Z,81.70
2022-08-24T15:31:19.337Z,80.03
2022-08-24T15:33:21.141Z,84.78
2022-08-24T15:35:28.338Z,88.78
2022-08-24T15:37:31.741Z,77.10
2022-08-24T15:39:33.515Z,88.68
2022-08-24T15:41:38.936Z,65.55
2022-08-24T15:43:43.869Z,74.88
2022-08-24T15:45:47.394Z,78.32
2022-08-24T15:47:52.053Z,93.57
2022-08-24T15:49:56.586Z,75.85
2022-08-24T15:52:00.417Z,86.80
2022-08-24T15:54:30.418Z,83.72
2022-08-24T15:56:39.796Z,88.90
2022-08-24T15:58:41.438Z,75.90
2022-08-24T16:01:01.671Z,103.88
2022-08-24T16:03:22.296Z,86.50
2022-08-24T16:05:25.122Z,81.97
2022-08-24T16:07:31.333Z,88.07
2022-08-24T16:09:37.715Z,91.03
2022-08-24T16:11:45.570Z,91.13
2022-08-24T16:13:47.395Z,87.45
2022-08-24T16:16:09.281Z,75.83
2022-08-24T16:18:11.014Z,86.47
2022-08-24T16:20:24.811Z,79.60
2022-08-24T16:22:30.361Z,68.78
2022-08-24T16:24:34.584Z,88.53
2022-08-24T16:26:37.561Z,85.25
2022-08-24T16:28:39.999Z,74.63
2022-08-24T16:30:53.176Z,84.13
2022-08-24T16:32:57.088Z,89.93
2022-08-24T16:35:08.196Z,76.38
2022-08-24T16:37:10.079Z,97.72
2022-08-24T16:39:11.938Z,86.88
2022-08-24T16:41:15.956Z,82.70
2022-08-24T16:43:17.594Z,105.97
2022-08-24T16:45:20.898Z,83.65
2022-08-24T16:47:23.462Z,82.10
2022-08-24T16:51:30.332Z,86.45
2022-08-24T16:53:32.002Z,94.13
2022-08-24T16:55:34.283Z,86.72
2022-08-24T16:57:37.518Z,87.90
2022-08-24T16:59:39.549Z,98.13
2022-08-24T17:01:41.201Z,101.45
2022-08-24T17:03:43.168Z,89.78
2022-08-24T17:05:44.987Z,75.40
2022-08-24T17:07:46.912Z,76.77
2022-08-24T17:09:48.848Z,89.53
2022-08-24T17:11:50.604Z,94.00
2022-08-24T17:13:52.199Z,98.73
2022-08-24T17:15:54.114Z,92.30
2022-08-24T17:18:02.058Z,85.75
2022-08-24T17:20:06.151Z,122.05
2022-08-24T17:22:10.092Z,97.43
2022-08-24T17:24:14.169Z,93.35
2022-08-24T17:26:20.609Z,95.63
2022-08-24T17:28:23.619Z,102.70
2022-08-24T17:30:25.977Z,101.50
2022-08-24T17:32:32.247Z,87.55
2022-08-24T17:34:34.059Z,112.03
2022-08-24T17:36:35.848Z,98.15
2022-08-24T17:38:41.041Z,100.85
2022-08-24T17:40:43.655Z,88.85
2022-08-24T17:42:51.301Z,88.93
2022-08-24T17:44:53.671Z,88.28
2022-08-24T17:46:57.636Z,106.45
2022-08-24T17:48:59.410Z,97.63
2022-08-24T17:51:00.958Z,84.55
2022-08-24T17:53:03.829Z,93.13
2022-08-24T17:57:06.977Z,102.97
2022-08-24T17:59:25.417Z,99.63
2022-08-24T18:01:27.697Z,82.40
2022-08-24T18:03:29.933Z,75.43
2022-08-24T18:05:33.131Z,82.93
2022-08-24T18:07:52.567Z,88.57
2022-08-24T18:09:58.162Z,91.72
2022-08-24T18:12:00.962Z,80.70
2022-08-24T18:14:02.662Z,95.90
2022-08-24T18:16:04.779Z,87.10
2022-08-24T18:18:08.569Z,74.55
2022-08-24T18:20:12.039Z,88.05
2022-08-24T18:22:13.606Z,80.93
2022-08-24T18:24:16.668Z,72.30
2022-08-24T18:26:27.780Z,86.40
2022-08-24T18:28:30.124Z,81.18
2022-08-24T18:30:32.155Z,78.63
2022-08-24T18:32:39.120Z,87.90
2022-08-24T18:34:41.542Z,76.30
2022-08-24T18:36:43.481Z,68.25
2022-08-24T18:38:45.205Z,83.30
2022-08-24T18:40:52.809Z,94.68
2022-08-24T18:42:56.126Z,94.00
2022-08-24T18:46:59.899Z,89.40
2022-08-24T18:49:01.989Z,87.25
2022-08-24T18:51:04.381Z,85.68
2022-08-24T18:53:06.121Z,80.50
2022-08-24T18:55:08.727Z,88.55
2022-08-24T18:57:10.920Z,82.00
2022-08-24T18:59:14.531Z,82.43
2022-08-24T19:01:16.451Z,80.28
2022-08-24T19:03:20.971Z,66.13
2022-08-24T19:05:23.942Z,68.68
2022-08-24T19:07:26.572Z,77.93
2022-08-24T19:09:33.498Z,71.63
2022-08-24T19:11:36.035Z,83.10
2022-08-24T19:13:39.752Z,78.13
2022-08-24T19:15:42.677Z,75.40
2022-08-24T19:17:44.558Z,79.28
2022-08-24T19:19:46.591Z,63.97
2022-08-24T19:21:48.220Z,69.80
2022-08-24T19:23:49.826Z,64.53
2022-08-24T19:25:51.879Z,64.00
2022-08-24T19:27:55.092Z,72.23
2022-08-24T19:29:56.834Z,71.95
2022-08-24T19:31:59.080Z,56.78
2022-08-24T19:34:03.449Z,59.33
2022-08-24T19:36:05.547Z,59.97
2022-08-24T19:38:07.351Z,72.43
2022-08-24T19:40:09.433Z,66.90
2022-08-24T19:42:13.103Z,78.20
2022-08-24T19:44:35.059Z,75.15
2022-08-24T19:46:37.116Z,69.85
2022-08-24T19:48:42.123Z,60.63
2022-08-24T19:50:44.215Z,61.22
2022-08-24T19:52:46.236Z,57.93
2022-08-24T19:54:48.095Z,59.40
2022-08-24T19:56:52.336Z,59.58
2022-08-24T19:59:06.979Z,55.47
2022-08-24T20:01:11.129Z,44.25
2022-08-24T20:03:13.328Z,32.10
2022-08-24T20:05:15.383Z,31.67
2022-08-24T20:07:17.549Z,35.67
2022-08-24T20:09:23.068Z,35.67
2022-08-24T20:11:25.571Z,28.95
2022-08-24T20:13:27.597Z,30.27
2022-08-24T20:15:29.596Z,30.52
2022-08-24T20:17:31.304Z,27.20
2022-08-24T20:19:35.288Z,27.17
2022-08-24T20:21:37.730Z,22.77
2022-08-24T20:23:39.456Z,31.05
2022-08-24T20:25:41.228Z,21.52
2022-08-24T20:27:45.037Z,25.73
2022-08-24T20:29:46.629Z,22.13
2022-08-24T20:31:50.535Z,23.73
2022-08-24T20:33:53.651Z,25.73
2022-08-24T20:35:56.210Z,25.85
2022-08-24T20:37:57.983Z,22.45
2022-08-24T20:40:00.384Z,26.47
2022-08-24T20:42:02.151Z,17.67
2022-08-24T20:44:04.273Z,21.88
2022-08-24T20:46:06.340Z,22.13
2022-08-24T20:48:11.832Z,20.88
2022-08-24T20:50:15.086Z,19.92
2022-08-24T20:52:17.442Z,21.55
2022-08-24T20:54:19.062Z,21.67
2022-08-24T20:56:38.915Z,25.02
2022-08-24T20:58:41.030Z,16.83
2022-08-24T21:00:44.398Z,23.42
2022-08-24T21:02:46.416Z,22.55
2022-08-24T21:04:48.218Z,26.00
2022-08-24T21:06:50.890Z,25.73
2022-08-24T21:08:53.392Z,18.77
2022-08-24T21:10:55.255Z,23.58
2022-08-24T21:12:57.028Z,21.60
2022-08-24T21:14:58.631Z,22.70
2022-08-24T21:17:00.857Z,23.60
2022-08-24T21:19:02.502Z,18.55
2022-08-24T21:21:04.903Z,23.85
2022-08-24T21:23:06.791Z,29.75
2022-08-24T21:25:09.670Z,20.88
2022-08-24T21:29:13.104Z,26.50
2022-08-24T21:31:14.717Z,23.63
2022-08-24T21:33:35.010Z,27.98
2022-08-24T21:35:37.156Z,18.45
2022-08-24T21:37:39.183Z,27.92
2022-08-24T21:39:40.940Z,23.25
2022-08-24T21:41:43.112Z,26.00
2022-08-24T21:43:44.741Z,22.92
2022-08-24T21:45:48.809Z,23.95
2022-08-24T21:47:50.639Z,25.58
2022-08-24T21:49:52.283Z,24.38
2022-08-24T21:51:53.926Z,19.08
2022-08-24T21:53:59.437Z,27.55
2022-08-24T21:56:02.486Z,22.65
2022-08-24T21:58:05.910Z,22.15
2022-08-24T22:00:09.896Z,32.00
2022-08-24T22:02:13.475Z,24.10
2022-08-24T22:04:18.483Z,22.17
2022-08-24T22:06:20.443Z,30.85
2022-08-24T22:08:22.253Z,29.50
2022-08-24T22:10:27.571Z,29.05
2022-08-24T22:12:29.343Z,21.98
2022-08-24T22:14:31.012Z,20.92
2022-08-24T22:16:32.807Z,23.50
2022-08-24T22:18:39.450Z,31.45
2022-08-24T22:20:41.212Z,33.22
2022-08-24T22:22:43.593Z,34.10
2022-08-24T22:24:47.369Z,23.92
2022-08-24T22:26:49.474Z,25.38
2022-08-24T22:28:51.086Z,24.30
2022-08-24T22:30:53.142Z,20.65
2022-08-24T22:32:54.814Z,19.95
2022-08-24T22:34:56.460Z,23.15
2022-08-24T22:37:01.084Z,19.42
2022-08-24T22:39:04.004Z,17.35
2022-08-24T22:41:06.381Z,21.15
2022-08-24T22:43:08.202Z,21.88
2022-08-24T22:45:10.367Z,16.10
2022-08-24T22:47:13.436Z,22.17
2022-08-24T22:49:18.022Z,20.15
2022-08-24T22:51:19.679Z,15.57
2022-08-24T22:53:21.577Z,18.67
2022-08-24T22:55:23.548Z,18.58
2022-08-24T22:57:26.762Z,17.52
2022-08-24T22:59:29.846Z,16.17
2022-08-24T23:01:33.041Z,15.35
2022-08-24T23:03:35.004Z,18.70
2022-08-24T23:05:36.921Z,23.85
2022-08-24T23:07:38.738Z,25.25
2022-08-24T23:09:44.925Z,17.50
2022-08-24T23:11:47.423Z,12.45
2022-08-24T23:13:49.651Z,20.05
2022-08-24T23:15:51.474Z,15.73
2022-08-24T23:17:53.346Z,14.27
2022-08-24T23:20:01.177Z,13.30
2022-08-24T23:22:03.477Z,15.05
2022-08-24T23:24:05.646Z,14.50
2022-08-24T23:26:07.422Z,15.07
2022-08-24T23:28:13.814Z,13.50
2022-08-24T23:30:15.739Z,16.02
2022-08-24T23:32:18.306Z,14.98
2022-08-24T23:34:20.964Z,17.30
2022-08-24T23:36:23.748Z,11.57
2022-08-24T23:38:25.526Z,11.05
2022-08-24T23:40:27.131Z,16.17
2022-08-24T23:42:28.803Z,13.43
2022-08-24T23:44:30.672Z,10.50
2022-08-24T23:46:32.719Z,12.73
2022-08-24T23:48:37.110Z,20.03
2022-08-24T23:50:38.854Z,13.20
2022-08-24T23:52:41.172Z,14.65
2022-08-24T23:54:42.918Z,20.52
2022-08-24T23:56:46.491Z,19.03
2022-08-24T23:58:49.862Z,17.20
